createdAt,value
2022-11-16T00:01:43.532Z,6.89
2022-11-16T00:04:12.064Z,6.96
2022-11-16T00:06:39.108Z,7.09
2022-11-16T00:09:26.665Z,6.99
2022-11-16T00:11:56.684Z,7.21
2022-11-16T00:14:25.522Z,7.24
2022-11-16T00:16:52.186Z,7.16
2022-11-16T00:19:18.975Z,7.23
2022-11-16T00:21:46.044Z,7.26
2022-11-16T00:24:14.834Z,7.29
2022-11-16T00:26:42.214Z,7.26
2022-11-16T00:29:21.211Z,7.30
2022-11-16T00:31:48.086Z,7.34
2022-11-16T00:34:18.434Z,7.25
2022-11-16T00:36:46.379Z,7.09
2022-11-16T00:39:15.283Z,7.15
2022-11-16T00:41:44.177Z,7.34
2022-11-16T00:44:11.846Z,7.32
2022-11-16T00:46:38.741Z,7.43
2022-11-16T00:49:06.074Z,7.73
2022-11-16T00:51:34.377Z,7.86
2022-11-16T00:54:01.856Z,7.64
2022-11-16T00:56:28.949Z,7.64
2022-11-16T00:58:55.635Z,7.81
2022-11-16T01:01:22.642Z,7.76
2022-11-16T01:03:51.278Z,7.85
2022-11-16T01:06:20.436Z,7.92
2022-11-16T01:08:49.061Z,7.97
2022-11-16T01:11:35.843Z,7.84
2022-11-16T01:14:07.729Z,7.98
2022-11-16T01:16:37.955Z,8.05
2022-11-16T01:19:04.962Z,8.01
2022-11-16T01:21:35.447Z,8.01
2022-11-16T01:24:02.077Z,7.90
2022-11-16T01:26:29.152Z,7.91
2022-11-16T01:28:56.031Z,8.07
2022-11-16T01:31:23.412Z,8.03
2022-11-16T01:33:51.695Z,8.01
2022-11-16T01:36:24.403Z,8.06
2022-11-16T01:38:52.360Z,8.16
2022-11-16T01:41:25.719Z,8.06
2022-11-16T01:44:04.155Z,8.17
2022-11-16T01:46:43.192Z,8.07
2022-11-16T01:49:17.007Z,8.06
2022-11-16T01:51:51.209Z,8.10
2022-11-16T01:54:19.005Z,7.89
2022-11-16T01:56:56.780Z,7.82
2022-11-16T01:59:46.262Z,8.07
2022-11-16T02:02:17.295Z,7.75
2022-11-16T02:04:47.910Z,7.50
2022-11-16T02:07:30.328Z,7.47
2022-11-16T02:10:15.827Z,7.39
2022-11-16T02:12:53.169Z,7.30
2022-11-16T02:15:35.432Z,7.14
2022-11-16T02:18:21.515Z,7.39
2022-11-16T02:21:03.125Z,7.38
2022-11-16T02:24:03.022Z,7.22
2022-11-16T02:26:54.328Z,6.93
2022-11-16T02:29:28.827Z,7.27
2022-11-16T02:32:17.504Z,7.39
2022-11-16T02:35:11.346Z,7.42
2022-11-16T02:37:49.611Z,7.08
2022-11-16T02:40:21.695Z,7.42
2022-11-16T02:42:58.079Z,6.64
2022-11-16T02:45:28.658Z,6.94
2022-11-16T02:48:03.095Z,7.31
2022-11-16T02:50:32.356Z,7.52
2022-11-16T02:52:58.974Z,7.11
2022-11-16T02:55:30.271Z,6.98
2022-11-16T02:58:11.209Z,6.81
2022-11-16T03:00:48.070Z,7.09
2022-11-16T03:03:39.596Z,7.32
2022-11-16T03:06:23.445Z,7.01
2022-11-16T03:08:59.943Z,7.11
2022-11-16T03:11:49.630Z,7.27
2022-11-16T03:14:22.662Z,7.00
2022-11-16T03:16:54.965Z,7.03
2022-11-16T03:19:30.922Z,7.11
2022-11-16T03:22:06.404Z,7.15
2022-11-16T03:24:36.589Z,7.17
2022-11-16T03:27:12.635Z,7.35
2022-11-16T03:29:44.952Z,7.47
2022-11-16T03:32:14.883Z,7.69
2022-11-16T03:34:48.178Z,7.71
2022-11-16T03:37:15.477Z,7.66
2022-11-16T03:39:43.509Z,7.70
2022-11-16T03:42:14.576Z,7.62
2022-11-16T03:44:46.470Z,7.62
2022-11-16T03:47:13.757Z,7.62
2022-11-16T03:49:45.304Z,7.57
2022-11-16T03:52:19.727Z,7.66
2022-11-16T03:54:48.392Z,7.64
2022-11-16T03:57:18.675Z,7.62
2022-11-16T03:59:51.172Z,7.71
2022-11-16T04:02:18.055Z,7.55
2022-11-16T04:05:03.552Z,7.33
2022-11-16T04:07:48.968Z,7.29
2022-11-16T04:10:34.643Z,7.31
2022-11-16T04:13:21.731Z,7.65
2022-11-16T04:16:07.187Z,7.76
2022-11-16T04:18:52.341Z,7.61
2022-11-16T04:21:48.468Z,7.84
2022-11-16T04:24:18.315Z,7.77
2022-11-16T04:27:09.177Z,7.73
2022-11-16T04:29:37.252Z,7.60
2022-11-16T04:32:23.235Z,7.72
2022-11-16T04:35:08.565Z,7.77
2022-11-16T04:37:52.404Z,7.88
2022-11-16T04:40:29.580Z,7.89
2022-11-16T04:42:59.959Z,7.85
2022-11-16T04:45:50.105Z,7.64
2022-11-16T04:48:20.771Z,7.69
2022-11-16T04:50:50.788Z,8.06
2022-11-16T04:53:18.309Z,8.06
2022-11-16T04:55:51.115Z,7.94
2022-11-16T04:58:20.125Z,7.86
2022-11-16T05:00:47.766Z,7.66
2022-11-16T05:03:14.732Z,7.67
2022-11-16T05:05:44.713Z,7.83
2022-11-16T05:08:12.212Z,7.81
2022-11-16T05:10:38.764Z,7.88
2022-11-16T05:13:05.369Z,8.04
2022-11-16T05:15:32.998Z,7.88
2022-11-16T05:18:00.768Z,7.59
2022-11-16T05:20:47.653Z,7.54
2022-11-16T05:23:33.408Z,7.67
2022-11-16T05:26:05.946Z,7.60
2022-11-16T05:28:32.991Z,7.71
2022-11-16T05:31:00.816Z,7.63
2022-11-16T05:33:30.292Z,7.65
2022-11-16T05:35:57.787Z,7.70
2022-11-16T05:38:24.537Z,7.26
2022-11-16T05:40:57.599Z,7.49
2022-11-16T05:43:24.353Z,7.53
2022-11-16T05:45:59.536Z,7.28
2022-11-16T05:48:26.179Z,7.24
2022-11-16T05:50:59.313Z,7.26
2022-11-16T05:53:28.230Z,7.31
2022-11-16T05:55:58.175Z,7.30
2022-11-16T05:58:31.096Z,7.41
2022-11-16T06:00:59.857Z,7.25
2022-11-16T06:03:30.563Z,7.31
2022-11-16T06:06:05.565Z,7.21
2022-11-16T06:08:35.567Z,7.26
2022-11-16T06:11:09.534Z,7.24
2022-11-16T06:13:38.624Z,7.38
2022-11-16T06:16:07.008Z,7.52
2022-11-16T06:18:40.381Z,7.59
2022-11-16T06:21:09.247Z,7.48
2022-11-16T06:23:36.169Z,7.56
2022-11-16T06:26:04.098Z,7.56
2022-11-16T06:28:32.492Z,7.65
2022-11-16T06:30:59.679Z,7.49
2022-11-16T06:33:32.224Z,7.55
2022-11-16T06:36:02.311Z,7.66
2022-11-16T06:38:29.086Z,7.75
2022-11-16T06:40:58.492Z,7.61
2022-11-16T06:43:27.725Z,7.63
2022-11-16T06:45:57.751Z,7.63
2022-11-16T06:48:25.386Z,7.65
2022-11-16T06:50:52.733Z,7.65
2022-11-16T06:53:27.559Z,7.66
2022-11-16T06:55:56.196Z,7.75
2022-11-16T06:58:22.904Z,7.84
2022-11-16T07:00:49.588Z,7.79
2022-11-16T07:03:16.414Z,7.81
2022-11-16T07:05:43.805Z,7.89
2022-11-16T07:08:14.091Z,7.92
2022-11-16T07:10:40.838Z,7.95
2022-11-16T07:13:08.168Z,7.89
2022-11-16T07:15:37.841Z,7.97
2022-11-16T07:18:07.790Z,7.73
2022-11-16T07:20:37.509Z,8.00
2022-11-16T07:23:05.741Z,7.95
2022-11-16T07:25:34.282Z,7.93
2022-11-16T07:28:02.547Z,8.02
2022-11-16T07:30:29.639Z,7.88
2022-11-16T07:33:09.576Z,7.89
2022-11-16T07:35:55.323Z,7.85
2022-11-16T07:38:22.018Z,7.88
2022-11-16T07:40:48.725Z,7.90
2022-11-16T07:43:18.271Z,8.04
2022-11-16T07:46:44.832Z,8.02
2022-11-16T07:48:53.066Z,7.99
2022-11-16T07:51:38.313Z,8.24
2022-11-16T07:54:20.065Z,8.22
2022-11-16T07:56:46.688Z,8.20
2022-11-16T07:59:13.278Z,8.26
2022-11-16T08:01:43.546Z,8.30
2022-11-16T08:04:11.437Z,8.14
2022-11-16T08:06:41.646Z,8.23
2022-11-16T08:09:09.555Z,8.29
2022-11-16T08:11:38.025Z,8.42
2022-11-16T08:14:04.931Z,8.12
2022-11-16T08:16:33.404Z,8.14
2022-11-16T08:19:08.170Z,7.99
2022-11-16T08:21:35.147Z,8.12
2022-11-16T08:24:02.323Z,8.08
2022-11-16T08:26:30.407Z,8.09
2022-11-16T08:29:02.396Z,8.14
2022-11-16T08:31:34.092Z,8.21
2022-11-16T08:34:08.091Z,8.42
2022-11-16T08:36:37.623Z,8.43
2022-11-16T08:39:06.197Z,8.49
2022-11-16T08:41:35.928Z,8.43
2022-11-16T08:44:02.597Z,8.55
2022-11-16T08:46:30.527Z,8.77
2022-11-16T08:49:07.671Z,8.58
2022-11-16T08:51:34.644Z,8.50
2022-11-16T08:54:06.241Z,8.56
2022-11-16T08:56:35.782Z,8.56
2022-11-16T08:59:03.695Z,8.51
2022-11-16T09:01:32.556Z,8.42
2022-11-16T09:04:00.047Z,8.47
2022-11-16T09:06:28.015Z,8.49
2022-11-16T09:08:56.046Z,8.48
2022-11-16T09:11:25.134Z,8.57
2022-11-16T09:13:54.449Z,8.58
2022-11-16T09:16:22.446Z,8.64
2022-11-16T09:18:51.015Z,8.80
2022-11-16T09:21:19.925Z,8.91
2022-11-16T09:23:47.674Z,8.66
2022-11-16T09:26:15.352Z,8.70
2022-11-16T09:28:42.686Z,8.70
2022-11-16T09:31:10.247Z,8.49
2022-11-16T09:33:37.269Z,8.65
2022-11-16T09:36:09.043Z,8.56
2022-11-16T09:39:19.037Z,8.81
2022-11-16T09:41:47.305Z,8.69
2022-11-16T09:44:37.935Z,8.26
2022-11-16T09:47:08.923Z,8.55
2022-11-16T09:49:38.223Z,8.72
2022-11-16T09:52:10.269Z,8.84
2022-11-16T09:54:42.978Z,8.95
2022-11-16T09:57:12.779Z,8.66
2022-11-16T09:59:54.111Z,8.72
2022-11-16T10:02:32.936Z,8.07
2022-11-16T10:05:22.219Z,7.97
2022-11-16T10:07:59.209Z,8.13
2022-11-16T10:10:39.605Z,8.17
2022-11-16T10:13:18.282Z,8.31
2022-11-16T10:15:49.922Z,7.84
2022-11-16T10:18:34.684Z,8.07
2022-11-16T10:21:19.449Z,7.80
2022-11-16T10:24:05.131Z,8.24
2022-11-16T10:26:42.527Z,7.95
2022-11-16T10:29:35.017Z,7.93
2022-11-16T10:32:14.022Z,8.08
2022-11-16T10:35:01.204Z,8.17
2022-11-16T10:37:32.099Z,7.98
2022-11-16T10:39:59.037Z,8.41
2022-11-16T10:42:32.204Z,8.57
2022-11-16T10:45:11.686Z,8.99
2022-11-16T10:47:50.173Z,9.20
2022-11-16T10:50:19.638Z,9.31
2022-11-16T10:52:46.211Z,9.46
2022-11-16T10:55:15.556Z,9.51
2022-11-16T10:58:03.245Z,9.60
2022-11-16T11:00:42.281Z,9.60
2022-11-16T11:03:10.944Z,9.63
2022-11-16T11:05:48.368Z,9.70
2022-11-16T11:08:26.107Z,9.32
2022-11-16T11:11:24.901Z,8.96
2022-11-16T11:14:10.195Z,9.14
2022-11-16T11:16:39.223Z,9.30
2022-11-16T11:19:26.140Z,9.45
2022-11-16T11:22:01.349Z,9.46
2022-11-16T11:24:44.000Z,9.11
2022-11-16T11:27:11.513Z,9.33
2022-11-16T11:29:42.643Z,9.73
2022-11-16T11:32:23.941Z,9.92
2022-11-16T11:34:54.003Z,9.95
2022-11-16T11:37:25.606Z,9.24
2022-11-16T11:40:19.771Z,9.23
2022-11-16T11:43:21.193Z,9.31
2022-11-16T11:46:15.935Z,9.03
2022-11-16T11:48:59.988Z,8.75
2022-11-16T11:51:47.657Z,9.14
2022-11-16T11:54:24.566Z,9.25
2022-11-16T11:56:53.004Z,8.98
2022-11-16T11:59:23.782Z,9.15
2022-11-16T12:01:50.377Z,9.46
2022-11-16T12:04:57.726Z,9.70
2022-11-16T12:07:27.267Z,9.80
2022-11-16T12:10:07.733Z,10.02
2022-11-16T12:13:12.131Z,10.14
2022-11-16T12:15:48.125Z,10.16
2022-11-16T12:18:20.491Z,10.08
2022-11-16T12:21:12.221Z,9.71
2022-11-16T12:23:57.827Z,9.81
2022-11-16T12:26:24.476Z,10.00
2022-11-16T12:29:22.512Z,10.19
2022-11-16T12:32:07.535Z,10.33
2022-11-16T12:34:40.122Z,10.40
2022-11-16T12:37:28.445Z,10.14
2022-11-16T12:40:15.450Z,10.31
2022-11-16T12:42:53.049Z,10.20
2022-11-16T12:45:32.238Z,10.26
2022-11-16T12:48:21.316Z,10.18
2022-11-16T12:51:03.420Z,10.14
2022-11-16T12:53:41.006Z,10.12
2022-11-16T12:56:25.815Z,9.79
2022-11-16T12:59:09.711Z,9.82
2022-11-16T13:02:00.262Z,9.88
2022-11-16T13:04:37.826Z,9.91
2022-11-16T13:07:11.669Z,9.89
2022-11-16T13:09:47.813Z,9.66
2022-11-16T13:12:19.757Z,8.95
2022-11-16T13:14:48.766Z,9.31
2022-11-16T13:17:24.276Z,9.64
2022-11-16T13:20:17.755Z,9.59
2022-11-16T13:22:55.392Z,9.02
2022-11-16T13:25:48.059Z,8.78
2022-11-16T13:28:20.175Z,9.32
2022-11-16T13:30:59.027Z,9.46
2022-11-16T13:33:50.693Z,9.37
2022-11-16T13:36:40.583Z,9.13
2022-11-16T13:39:08.209Z,8.89
2022-11-16T13:41:40.214Z,9.01
2022-11-16T13:44:28.966Z,9.07
2022-11-16T13:47:04.342Z,9.37
2022-11-16T13:49:41.418Z,9.47
2022-11-16T13:52:23.077Z,9.53
2022-11-16T13:54:55.450Z,9.08
2022-11-16T13:57:24.832Z,9.24
2022-11-16T14:00:00.817Z,8.99
2022-11-16T14:02:30.798Z,9.15
2022-11-16T14:05:18.127Z,9.23
2022-11-16T14:07:49.685Z,8.92
2022-11-16T14:10:35.018Z,8.99
2022-11-16T14:13:06.332Z,8.89
2022-11-16T14:15:36.759Z,9.35
2022-11-16T14:18:09.236Z,9.31
2022-11-16T14:20:51.055Z,9.50
2022-11-16T14:23:26.765Z,9.36
2022-11-16T14:26:02.722Z,9.50
2022-11-16T14:28:40.703Z,9.55
2022-11-16T14:31:14.202Z,9.60
2022-11-16T14:33:41.449Z,9.50
2022-11-16T14:36:10.515Z,9.61
2022-11-16T14:38:41.600Z,9.63
2022-11-16T14:41:21.775Z,9.59
2022-11-16T14:43:55.319Z,9.45
2022-11-16T14:46:36.173Z,9.52
2022-11-16T14:49:03.438Z,9.71
2022-11-16T14:51:32.983Z,9.69
2022-11-16T14:54:16.875Z,9.57
2022-11-16T14:57:00.567Z,9.58
2022-11-16T14:59:28.746Z,9.75
2022-11-16T15:01:56.819Z,9.81
2022-11-16T15:04:27.381Z,9.71
2022-11-16T15:07:04.244Z,9.80
2022-11-16T15:09:31.029Z,9.82
2022-11-16T15:12:18.013Z,9.84
2022-11-16T15:14:49.860Z,9.87
2022-11-16T15:17:20.447Z,9.60
2022-11-16T15:20:01.961Z,9.54
2022-11-16T15:22:32.035Z,9.30
2022-11-16T15:25:00.919Z,9.34
2022-11-16T15:27:40.342Z,9.33
2022-11-16T15:30:17.070Z,9.10
2022-11-16T15:32:46.055Z,9.15
2022-11-16T15:35:22.918Z,9.12
2022-11-16T15:38:25.898Z,9.08
2022-11-16T15:40:54.913Z,9.06
2022-11-16T15:43:25.903Z,9.12
2022-11-16T15:45:53.537Z,9.00
2022-11-16T15:48:23.200Z,9.12
2022-11-16T15:51:07.422Z,9.02
2022-11-16T15:53:39.871Z,9.10
2022-11-16T15:56:13.983Z,9.03
2022-11-16T15:58:42.352Z,8.87
2022-11-16T16:01:11.174Z,8.88
2022-11-16T16:03:46.106Z,8.87
2022-11-16T16:06:16.464Z,9.08
2022-11-16T16:08:45.174Z,9.09
2022-11-16T16:11:27.027Z,8.97
2022-11-16T16:14:02.009Z,8.88
2022-11-16T16:16:39.511Z,8.81
2022-11-16T16:19:26.285Z,9.02
2022-11-16T16:21:53.191Z,9.04
2022-11-16T16:24:41.450Z,8.88
2022-11-16T16:27:22.807Z,8.82
2022-11-16T16:29:51.799Z,8.94
2022-11-16T16:32:21.356Z,9.16
2022-11-16T16:34:48.140Z,9.04
2022-11-16T16:37:15.231Z,9.01
2022-11-16T16:39:42.306Z,9.00
2022-11-16T16:42:12.232Z,9.07
2022-11-16T16:44:39.723Z,9.13
2022-11-16T16:47:06.481Z,9.07
2022-11-16T16:49:33.307Z,9.29
2022-11-16T16:52:00.143Z,9.21
2022-11-16T16:54:28.611Z,9.12
2022-11-16T16:56:57.416Z,9.09
2022-11-16T16:59:24.911Z,9.19
2022-11-16T17:01:51.945Z,9.23
2022-11-16T17:04:20.294Z,9.18
2022-11-16T17:06:48.147Z,9.20
2022-11-16T17:09:14.822Z,9.17
2022-11-16T17:11:44.324Z,8.98
2022-11-16T17:14:11.304Z,9.14
2022-11-16T17:16:38.628Z,9.15
2022-11-16T17:19:05.395Z,9.28
2022-11-16T17:21:32.583Z,9.33
2022-11-16T17:23:59.495Z,8.97
2022-11-16T17:26:29.796Z,9.26
2022-11-16T17:28:57.671Z,9.11
2022-11-16T17:31:26.046Z,8.98
2022-11-16T17:33:52.995Z,8.95
2022-11-16T17:36:20.278Z,9.03
2022-11-16T17:38:47.033Z,8.99
2022-11-16T17:41:21.608Z,9.07
2022-11-16T17:43:52.458Z,9.10
2022-11-16T17:46:21.542Z,9.21
2022-11-16T17:48:48.977Z,8.96
2022-11-16T17:51:17.970Z,9.01
2022-11-16T17:53:45.154Z,9.02
2022-11-16T17:56:17.653Z,9.00
2022-11-16T17:58:50.062Z,8.81
2022-11-16T18:01:16.967Z,8.76
2022-11-16T18:03:43.814Z,8.84
2022-11-16T18:06:16.761Z,8.86
2022-11-16T18:08:46.317Z,8.89
2022-11-16T18:11:16.068Z,8.87
2022-11-16T18:13:43.751Z,8.90
2022-11-16T18:16:18.280Z,8.91
2022-11-16T18:18:46.911Z,9.00
2022-11-16T18:21:20.425Z,9.01
2022-11-16T18:23:48.295Z,8.99
2022-11-16T18:26:18.903Z,8.64
2022-11-16T18:28:46.253Z,8.57
2022-11-16T18:31:18.477Z,8.25
2022-11-16T18:33:45.851Z,7.82
2022-11-16T18:36:13.032Z,7.55
2022-11-16T18:38:39.753Z,7.56
2022-11-16T18:41:12.030Z,7.58
2022-11-16T18:43:40.552Z,7.32
2022-11-16T18:46:11.495Z,6.98
2022-11-16T18:48:39.609Z,6.82
2022-11-16T18:51:06.591Z,6.88
2022-11-16T18:53:33.840Z,7.02
2022-11-16T18:56:00.936Z,7.27
2022-11-16T19:01:17.452Z,7.07
2022-11-16T19:03:44.654Z,6.91
2022-11-16T19:06:12.971Z,6.84
2022-11-16T19:08:43.905Z,7.31
2022-11-16T19:11:13.950Z,7.45
2022-11-16T19:13:42.116Z,7.83
2022-11-16T19:16:10.526Z,7.65
2022-11-16T19:18:37.902Z,7.36
2022-11-16T19:21:06.636Z,6.64
2022-11-16T19:23:42.984Z,7.06
2022-11-16T19:26:12.683Z,6.71
2022-11-16T19:28:41.872Z,6.92
2022-11-16T19:31:27.486Z,7.22
2022-11-16T19:34:13.364Z,7.21
2022-11-16T19:36:40.089Z,7.03
2022-11-16T19:39:06.864Z,6.81
2022-11-16T19:41:33.671Z,6.95
2022-11-16T19:44:01.656Z,6.91
2022-11-16T19:46:30.613Z,6.59
2022-11-16T19:48:57.703Z,7.08
2022-11-16T19:51:27.017Z,6.90
2022-11-16T19:53:53.960Z,7.23
2022-11-16T19:56:22.133Z,7.06
2022-11-16T19:58:49.254Z,7.01
2022-11-16T20:01:21.329Z,6.89
2022-11-16T20:03:49.460Z,6.93
2022-11-16T20:06:19.262Z,6.76
2022-11-16T20:08:50.974Z,7.10
2022-11-16T20:11:23.559Z,6.92
2022-11-16T20:13:53.705Z,6.77
2022-11-16T20:16:24.117Z,6.33
2022-11-16T20:18:52.147Z,6.75
2022-11-16T20:21:40.250Z,6.64
2022-11-16T20:24:09.614Z,6.45
2022-11-16T20:26:40.312Z,6.97
2022-11-16T20:29:07.095Z,7.22
2022-11-16T20:31:34.222Z,7.26
2022-11-16T20:34:04.109Z,7.15
2022-11-16T20:36:33.031Z,7.47
2022-11-16T20:39:00.614Z,7.59
2022-11-16T20:41:30.134Z,7.88
2022-11-16T20:43:58.603Z,8.25
2022-11-16T20:46:27.887Z,7.87
2022-11-16T20:48:57.201Z,8.08
2022-11-16T20:51:24.099Z,8.00
2022-11-16T20:53:52.323Z,7.99
2022-11-16T20:56:20.029Z,8.24
2022-11-16T20:58:48.319Z,8.41
2022-11-16T21:01:32.092Z,8.47
2022-11-16T21:04:04.372Z,8.47
2022-11-16T21:06:32.313Z,8.57
2022-11-16T21:09:00.318Z,8.51
2022-11-16T21:11:29.970Z,8.58
2022-11-16T21:14:15.239Z,8.43
2022-11-16T21:16:42.115Z,8.55
2022-11-16T21:19:09.829Z,8.47
2022-11-16T21:21:38.063Z,8.65
2022-11-16T21:24:04.861Z,8.62
2022-11-16T21:26:33.658Z,8.52
2022-11-16T21:29:01.500Z,8.62
2022-11-16T21:31:30.905Z,8.61
2022-11-16T21:34:00.556Z,8.58
2022-11-16T21:36:29.871Z,8.48
2022-11-16T21:38:58.231Z,7.96
2022-11-16T21:41:26.966Z,7.61
2022-11-16T21:43:54.020Z,7.35
2022-11-16T21:46:24.797Z,7.41
2022-11-16T21:48:52.950Z,7.65
2022-11-16T21:51:22.020Z,7.99
2022-11-16T21:53:48.765Z,7.84
2022-11-16T21:56:17.150Z,7.60
2022-11-16T21:58:44.961Z,7.62
2022-11-16T22:01:13.067Z,7.71
2022-11-16T22:03:39.911Z,7.50
2022-11-16T22:06:30.782Z,7.92
2022-11-16T22:08:57.576Z,8.25
2022-11-16T22:11:24.689Z,8.37
2022-11-16T22:13:51.815Z,8.39
2022-11-16T22:16:20.279Z,8.45
2022-11-16T22:18:47.054Z,8.59
2022-11-16T22:21:13.834Z,8.61
2022-11-16T22:23:40.915Z,8.60
2022-11-16T22:26:11.125Z,8.53
2022-11-16T22:28:38.524Z,8.58
2022-11-16T22:31:07.604Z,8.29
2022-11-16T22:33:34.891Z,8.39
2022-11-16T22:36:02.568Z,8.44
2022-11-16T22:38:30.033Z,8.15
2022-11-16T22:40:57.581Z,8.33
2022-11-16T22:43:26.785Z,8.37
2022-11-16T22:46:04.571Z,8.61
2022-11-16T22:48:36.734Z,8.52
2022-11-16T22:51:12.453Z,8.66
2022-11-16T22:53:39.374Z,8.59
2022-11-16T22:56:07.599Z,8.25
2022-11-16T22:58:35.889Z,8.19
2022-11-16T23:01:02.990Z,8.13
2022-11-16T23:03:30.851Z,8.10
2022-11-16T23:05:57.958Z,7.98
2022-11-16T23:08:27.528Z,7.86
2022-11-16T23:11:31.358Z,7.88
2022-11-16T23:14:17.951Z,8.19
2022-11-16T23:16:45.848Z,8.33
2022-11-16T23:19:33.347Z,8.27
2022-11-16T23:22:19.136Z,8.16
2022-11-16T23:25:05.011Z,8.19
2022-11-16T23:27:58.973Z,8.04
2022-11-16T23:30:25.771Z,8.14
2022-11-16T23:32:53.691Z,8.44
2022-11-16T23:35:21.253Z,8.45
2022-11-16T23:37:54.842Z,8.33
2022-11-16T23:40:23.559Z,8.15
2022-11-16T23:43:10.820Z,8.08
2022-11-16T23:45:38.579Z,8.25
2022-11-16T23:48:07.094Z,8.36
2022-11-16T23:50:34.351Z,8.57
2022-11-16T23:53:01.090Z,8.77
2022-11-16T23:55:28.511Z,8.65
2022-11-16T23:57:56.396Z,8.60
